createdAt,value
2022-12-18T00:02:10.798Z,15.05
2022-12-18T00:04:37.368Z,12.88
2022-12-18T00:07:03.922Z,13.63
2022-12-18T00:09:31.019Z,12.23
2022-12-18T00:14:42.802Z,12.57
2022-12-18T00:17:09.223Z,12.70
2022-12-18T00:19:35.648Z,14.13
2022-12-18T00:22:02.071Z,14.77
2022-12-18T00:24:28.428Z,12.85
2022-12-18T00:26:54.818Z,12.93
2022-12-18T00:29:21.219Z,11.48
2022-12-18T00:31:47.642Z,13.73
2022-12-18T00:34:14.829Z,13.23
2022-12-18T00:36:41.956Z,13.07
2022-12-18T00:39:08.907Z,12.43
2022-12-18T00:41:54.069Z,12.88
2022-12-18T00:44:20.771Z,13.70
2022-12-18T00:46:48.430Z,12.82
2022-12-18T00:49:16.622Z,14.48
2022-12-18T00:51:43.201Z,12.80
2022-12-18T00:54:11.221Z,14.55
2022-12-18T00:56:48.026Z,14.43
2022-12-18T00:59:15.593Z,15.48
2022-12-18T01:01:42.426Z,11.75
2022-12-18T01:04:08.932Z,13.65
2022-12-18T01:06:35.498Z,13.85
2022-12-18T01:09:02.545Z,14.18
2022-12-18T01:11:29.022Z,12.13
2022-12-18T01:13:55.989Z,13.68
2022-12-18T01:16:23.183Z,14.48
2022-12-18T01:18:53.858Z,15.95
2022-12-18T01:21:20.874Z,13.27
2022-12-18T01:23:47.677Z,13.03
2022-12-18T01:26:16.652Z,14.85
2022-12-18T01:28:44.848Z,13.00
2022-12-18T01:31:24.468Z,15.05
2022-12-18T01:33:52.447Z,12.95
2022-12-18T01:36:26.380Z,16.52
2022-12-18T01:38:54.225Z,11.52
2022-12-18T01:41:24.077Z,12.82
2022-12-18T01:43:56.146Z,14.07
2022-12-18T01:46:27.331Z,12.05
2022-12-18T01:48:58.921Z,13.10
2022-12-18T01:51:27.802Z,13.95
2022-12-18T01:53:54.152Z,13.43
2022-12-18T01:56:22.386Z,13.45
2022-12-18T01:59:03.628Z,11.48
2022-12-18T02:01:31.774Z,13.20
2022-12-18T02:04:27.051Z,12.13
2022-12-18T02:07:04.821Z,12.95
2022-12-18T02:09:41.860Z,11.40
2022-12-18T02:12:22.132Z,13.05
2022-12-18T02:15:09.463Z,14.03
2022-12-18T02:17:53.227Z,13.85
2022-12-18T02:20:33.025Z,12.98
2022-12-18T02:23:12.366Z,12.63
2022-12-18T02:26:03.656Z,12.93
2022-12-18T02:28:35.641Z,12.50
2022-12-18T02:31:06.974Z,12.13
2022-12-18T02:33:37.047Z,11.05
2022-12-18T02:36:05.249Z,10.15
2022-12-18T02:38:33.289Z,11.73
2022-12-18T02:41:00.558Z,12.07
2022-12-18T02:43:26.982Z,11.07
2022-12-18T02:45:56.895Z,11.55
2022-12-18T02:48:34.737Z,12.60
2022-12-18T02:51:24.749Z,13.15
2022-12-18T02:54:06.350Z,12.23
2022-12-18T02:56:45.699Z,11.32
2022-12-18T02:59:23.021Z,12.75
2022-12-18T03:02:04.123Z,11.45
2022-12-18T03:04:43.556Z,10.45
2022-12-18T03:07:16.673Z,10.73
2022-12-18T03:09:47.487Z,9.55
2022-12-18T03:12:26.708Z,11.85
2022-12-18T03:15:02.786Z,10.82
2022-12-18T03:17:33.125Z,10.05
2022-12-18T03:20:04.891Z,10.23
2022-12-18T03:22:34.221Z,10.30
2022-12-18T03:25:03.721Z,11.15
2022-12-18T03:27:33.436Z,10.43
2022-12-18T03:30:09.811Z,9.93
2022-12-18T03:32:59.995Z,9.57
2022-12-18T03:35:32.330Z,10.93
2022-12-18T03:37:58.772Z,10.07
2022-12-18T03:40:36.126Z,10.07
2022-12-18T03:43:17.722Z,11.10
2022-12-18T03:45:54.178Z,9.13
2022-12-18T03:48:52.297Z,8.40
2022-12-18T03:51:33.018Z,8.82
2022-12-18T03:54:02.358Z,10.30
2022-12-18T03:56:32.906Z,9.88
2022-12-18T03:59:02.506Z,10.03
2022-12-18T04:01:36.189Z,9.40
2022-12-18T04:04:04.642Z,8.90
2022-12-18T04:06:36.053Z,9.07
2022-12-18T04:09:02.776Z,9.70
2022-12-18T04:11:29.189Z,9.80
2022-12-18T04:13:59.345Z,8.80
2022-12-18T04:16:29.491Z,8.73
2022-12-18T04:18:55.976Z,9.07
2022-12-18T04:21:23.646Z,8.35
2022-12-18T04:23:50.273Z,9.00
2022-12-18T04:26:16.649Z,7.60
2022-12-18T04:28:43.544Z,8.50
2022-12-18T04:31:10.209Z,8.63
2022-12-18T04:33:37.243Z,8.32
2022-12-18T04:36:04.497Z,8.30
2022-12-18T04:38:30.899Z,8.70
2022-12-18T04:40:57.314Z,8.43
2022-12-18T04:43:23.825Z,8.93
2022-12-18T04:45:50.328Z,8.52
2022-12-18T04:48:16.789Z,8.77
2022-12-18T04:50:43.261Z,9.05
2022-12-18T04:53:09.658Z,7.35
2022-12-18T04:55:36.461Z,6.25
2022-12-18T04:58:02.856Z,7.93
2022-12-18T05:00:29.261Z,7.93
2022-12-18T05:02:56.179Z,6.50
2022-12-18T05:05:22.645Z,7.47
2022-12-18T05:07:49.093Z,8.20
2022-12-18T05:10:15.751Z,8.10
2022-12-18T05:12:59.029Z,7.60
2022-12-18T05:15:31.805Z,6.07
2022-12-18T05:17:59.315Z,7.00
2022-12-18T05:20:26.481Z,6.57
2022-12-18T05:22:54.713Z,6.97
2022-12-18T05:25:21.769Z,6.97
2022-12-18T05:27:48.711Z,7.03
2022-12-18T05:30:16.304Z,7.13
2022-12-18T05:32:42.708Z,6.30
2022-12-18T05:35:10.830Z,7.18
2022-12-18T05:37:42.692Z,5.60
2022-12-18T05:40:11.007Z,6.30
2022-12-18T05:42:37.915Z,7.50
2022-12-18T05:45:05.989Z,6.40
2022-12-18T05:47:32.465Z,6.03
2022-12-18T05:49:59.010Z,6.83
2022-12-18T05:52:25.521Z,6.47
2022-12-18T05:54:51.892Z,6.30
2022-12-18T05:57:18.628Z,7.43
2022-12-18T05:59:44.990Z,6.18
2022-12-18T06:02:11.508Z,5.63
2022-12-18T06:04:38.113Z,6.88
2022-12-18T06:07:04.648Z,6.15
2022-12-18T06:09:31.230Z,7.38
2022-12-18T06:11:57.700Z,6.13
2022-12-18T06:14:24.096Z,6.17
2022-12-18T06:16:52.342Z,7.28
2022-12-18T06:19:18.753Z,6.85
2022-12-18T06:21:45.219Z,6.95
2022-12-18T06:24:11.650Z,6.85
2022-12-18T06:26:41.598Z,7.03
2022-12-18T06:29:08.191Z,6.05
2022-12-18T06:31:34.775Z,6.75
2022-12-18T06:34:04.684Z,6.25
2022-12-18T06:36:31.393Z,6.68
2022-12-18T06:38:58.431Z,6.73
2022-12-18T06:41:25.009Z,6.53
2022-12-18T06:43:53.551Z,7.93
2022-12-18T06:46:22.039Z,6.97
2022-12-18T06:48:50.903Z,5.80
2022-12-18T06:51:21.963Z,6.80
2022-12-18T06:53:48.449Z,6.68
2022-12-18T06:56:15.226Z,5.35
2022-12-18T06:58:41.875Z,6.68
2022-12-18T07:01:11.209Z,5.45
2022-12-18T07:03:39.473Z,6.43
2022-12-18T07:06:06.954Z,4.75
2022-12-18T07:08:34.754Z,5.45
2022-12-18T07:11:04.470Z,5.28
2022-12-18T07:13:30.883Z,5.13
2022-12-18T07:16:15.065Z,5.77
2022-12-18T07:18:43.809Z,6.03
2022-12-18T07:21:12.752Z,4.45
2022-12-18T07:23:39.645Z,5.25
2022-12-18T07:26:12.262Z,5.55
2022-12-18T07:28:40.971Z,5.83
2022-12-18T07:31:13.387Z,4.68
2022-12-18T07:33:40.374Z,5.20
2022-12-18T07:36:08.461Z,5.60
2022-12-18T07:38:36.334Z,6.07
2022-12-18T07:41:11.331Z,4.43
2022-12-18T07:43:38.840Z,5.63
2022-12-18T07:46:06.541Z,5.30
2022-12-18T07:48:33.214Z,5.10
2022-12-18T07:51:07.457Z,5.78
2022-12-18T07:53:34.790Z,5.40
2022-12-18T07:56:29.474Z,5.30
2022-12-18T07:58:57.411Z,4.82
2022-12-18T08:01:24.046Z,4.45
2022-12-18T08:03:51.595Z,5.20
2022-12-18T08:06:19.017Z,5.33
2022-12-18T08:08:45.378Z,5.57
2022-12-18T08:11:11.761Z,5.55
2022-12-18T08:13:38.416Z,5.85
2022-12-18T08:16:07.830Z,4.82
2022-12-18T08:18:35.901Z,6.87
2022-12-18T08:21:16.647Z,5.40
2022-12-18T08:23:43.938Z,5.20
2022-12-18T08:26:12.349Z,5.85
2022-12-18T08:28:38.872Z,5.93
2022-12-18T08:31:05.891Z,6.28
2022-12-18T08:33:33.558Z,5.13
2022-12-18T08:36:01.070Z,5.35
2022-12-18T08:38:27.641Z,5.95
2022-12-18T08:41:07.939Z,5.75
2022-12-18T08:43:53.536Z,5.97
2022-12-18T08:46:21.706Z,5.25
2022-12-18T08:48:48.520Z,6.35
2022-12-18T08:51:17.345Z,5.70
2022-12-18T08:53:45.463Z,5.60
2022-12-18T08:56:12.721Z,6.53
2022-12-18T08:58:39.231Z,6.68
2022-12-18T09:01:07.879Z,5.55
2022-12-18T09:03:34.355Z,5.82
2022-12-18T09:06:00.857Z,5.72
2022-12-18T09:08:27.564Z,5.47
2022-12-18T09:10:54.474Z,5.70
2022-12-18T09:13:21.344Z,5.95
2022-12-18T09:15:53.821Z,5.63
2022-12-18T09:18:22.243Z,6.05
2022-12-18T09:20:48.891Z,5.53
2022-12-18T09:23:15.590Z,5.20
2022-12-18T09:25:42.005Z,5.07
2022-12-18T09:28:16.823Z,5.20
2022-12-18T09:30:46.068Z,6.38
2022-12-18T09:33:12.508Z,6.13
2022-12-18T09:35:39.690Z,5.40
2022-12-18T09:38:07.422Z,5.35
2022-12-18T09:40:45.796Z,5.85
2022-12-18T09:43:23.226Z,5.80
2022-12-18T09:45:56.048Z,5.10
2022-12-18T09:48:34.009Z,5.32
2022-12-18T09:51:06.792Z,4.30
2022-12-18T09:53:39.378Z,4.20
2022-12-18T09:56:06.334Z,4.68
2022-12-18T09:58:41.323Z,5.78
2022-12-18T10:01:15.571Z,4.60
2022-12-18T10:03:41.984Z,5.50
2022-12-18T10:06:16.501Z,5.78
2022-12-18T10:09:19.979Z,5.03
2022-12-18T10:12:06.034Z,4.47
2022-12-18T10:14:41.611Z,4.28
2022-12-18T10:17:27.470Z,4.88
2022-12-18T10:20:00.435Z,5.93
2022-12-18T10:22:35.946Z,4.07
2022-12-18T10:25:17.608Z,4.53
2022-12-18T10:27:44.234Z,4.15
2022-12-18T10:30:17.071Z,5.25
2022-12-18T10:32:43.846Z,4.47
2022-12-18T10:35:20.606Z,4.53
2022-12-18T10:38:05.245Z,5.18
2022-12-18T10:40:31.883Z,4.88
2022-12-18T10:43:10.961Z,4.03
2022-12-18T10:45:37.333Z,5.25
2022-12-18T10:48:04.641Z,5.55
2022-12-18T10:51:09.254Z,4.20
2022-12-18T10:53:30.387Z,4.18
2022-12-18T10:56:03.350Z,4.47
2022-12-18T10:58:33.189Z,5.03
2022-12-18T11:01:14.705Z,4.55
2022-12-18T11:03:47.332Z,4.18
2022-12-18T11:06:16.327Z,3.90
2022-12-18T11:08:44.943Z,3.92
2022-12-18T11:11:24.881Z,3.95
2022-12-18T11:14:22.760Z,5.38
2022-12-18T11:17:24.312Z,4.60
2022-12-18T11:19:39.699Z,4.72
2022-12-18T11:22:23.739Z,4.07
2022-12-18T11:25:30.245Z,4.63
2022-12-18T11:28:09.252Z,4.47
2022-12-18T11:30:37.414Z,5.20
2022-12-18T11:33:22.990Z,4.93
2022-12-18T11:35:54.095Z,4.32
2022-12-18T11:38:31.259Z,3.88
2022-12-18T11:41:19.500Z,3.90
2022-12-18T11:44:03.001Z,4.47
2022-12-18T11:46:37.034Z,4.72
2022-12-18T11:49:19.343Z,4.85
2022-12-18T11:52:01.057Z,4.63
2022-12-18T11:54:27.456Z,4.82
2022-12-18T11:56:59.516Z,4.95
2022-12-18T11:59:45.207Z,4.55
2022-12-18T12:02:33.136Z,4.55
2022-12-18T12:05:21.842Z,4.47
2022-12-18T12:07:59.774Z,4.47
2022-12-18T12:10:50.738Z,5.40
2022-12-18T12:13:26.992Z,5.03
2022-12-18T12:16:04.834Z,5.25
2022-12-18T12:18:43.954Z,5.25
2022-12-18T12:21:39.169Z,5.13
2022-12-18T12:24:38.614Z,4.65
2022-12-18T12:27:35.891Z,4.40
2022-12-18T12:30:17.465Z,6.00
2022-12-18T12:33:09.873Z,5.28
2022-12-18T12:36:04.210Z,4.35
2022-12-18T12:38:52.392Z,4.57
2022-12-18T12:41:43.720Z,4.95
2022-12-18T12:44:19.497Z,5.53
2022-12-18T12:46:49.336Z,4.57
2022-12-18T12:49:19.680Z,4.38
2022-12-18T12:51:50.863Z,5.55
2022-12-18T12:54:22.410Z,4.78
2022-12-18T12:57:09.905Z,5.97
2022-12-18T12:59:59.135Z,5.70
2022-12-18T13:02:45.411Z,4.82
2022-12-18T13:05:32.127Z,5.68
2022-12-18T13:08:08.444Z,4.95
2022-12-18T13:10:41.474Z,4.78
2022-12-18T13:13:09.163Z,4.93
2022-12-18T13:15:44.283Z,5.50
2022-12-18T13:18:19.441Z,5.80
2022-12-18T13:20:55.326Z,5.40
2022-12-18T13:23:26.601Z,4.95
2022-12-18T13:26:28.123Z,5.60
2022-12-18T13:28:56.853Z,4.97
2022-12-18T13:31:41.779Z,4.97
2022-12-18T13:34:26.961Z,4.63
2022-12-18T13:36:56.733Z,5.05
2022-12-18T13:39:34.800Z,5.80
2022-12-18T13:42:08.625Z,5.03
2022-12-18T13:44:40.968Z,4.93
2022-12-18T13:47:29.609Z,5.22
2022-12-18T13:49:57.921Z,4.78
2022-12-18T13:52:34.540Z,4.63
2022-12-18T13:55:03.435Z,4.47
2022-12-18T13:57:36.548Z,5.53
2022-12-18T14:00:35.577Z,5.05
2022-12-18T14:03:02.262Z,5.70
2022-12-18T14:05:38.663Z,5.20
2022-12-18T14:08:11.299Z,5.57
2022-12-18T14:10:48.931Z,5.40
2022-12-18T14:13:29.905Z,5.63
2022-12-18T14:15:57.363Z,5.93
2022-12-18T14:18:44.554Z,6.63
2022-12-18T14:21:30.247Z,5.28
2022-12-18T14:24:07.287Z,7.68
2022-12-18T14:26:34.442Z,6.57
2022-12-18T14:29:18.507Z,6.65
2022-12-18T14:31:45.871Z,6.13
2022-12-18T14:34:18.316Z,5.50
2022-12-18T14:36:54.104Z,5.85
2022-12-18T14:39:20.474Z,5.30
2022-12-18T14:41:50.158Z,5.78
2022-12-18T14:44:16.800Z,5.75
2022-12-18T14:46:48.192Z,5.50
2022-12-18T14:49:32.735Z,5.55
2022-12-18T14:52:01.023Z,5.10
2022-12-18T14:54:30.096Z,5.88
2022-12-18T14:57:22.233Z,5.80
2022-12-18T14:59:48.824Z,5.53
2022-12-18T15:02:27.748Z,5.32
2022-12-18T15:05:06.138Z,6.28
2022-12-18T15:07:50.915Z,5.75
2022-12-18T15:10:25.591Z,5.32
2022-12-18T15:12:58.811Z,5.90
2022-12-18T15:15:34.766Z,5.45
2022-12-18T15:18:02.690Z,6.22
2022-12-18T15:20:33.108Z,5.90
2022-12-18T15:22:59.574Z,5.63
2022-12-18T15:25:37.792Z,5.90
2022-12-18T15:28:16.679Z,5.53
2022-12-18T15:31:07.286Z,6.15
2022-12-18T15:33:37.612Z,5.82
2022-12-18T15:36:09.369Z,6.07
2022-12-18T15:38:36.315Z,5.65
2022-12-18T15:41:03.399Z,6.30
2022-12-18T15:43:36.102Z,5.90
2022-12-18T15:46:07.886Z,5.20
2022-12-18T15:48:36.474Z,6.55
2022-12-18T15:51:02.965Z,6.28
2022-12-18T15:53:33.434Z,6.28
2022-12-18T15:56:18.991Z,6.40
2022-12-18T15:58:45.385Z,5.68
2022-12-18T16:01:12.599Z,6.80
2022-12-18T16:03:39.553Z,6.88
2022-12-18T16:06:06.537Z,6.50
2022-12-18T16:08:33.268Z,7.32
2022-12-18T16:11:00.892Z,6.57
2022-12-18T16:13:27.307Z,6.25
2022-12-18T16:15:53.922Z,6.50
2022-12-18T16:18:20.387Z,6.57
2022-12-18T16:20:46.857Z,7.22
2022-12-18T16:23:13.323Z,5.93
2022-12-18T16:25:39.942Z,5.95
2022-12-18T16:28:06.443Z,7.22
2022-12-18T16:30:38.181Z,6.70
2022-12-18T16:33:05.654Z,7.32
2022-12-18T16:35:33.982Z,7.18
2022-12-18T16:38:00.393Z,6.78
2022-12-18T16:40:26.903Z,6.03
2022-12-18T16:42:53.268Z,7.53
2022-12-18T16:45:19.737Z,7.10
2022-12-18T16:47:46.353Z,7.65
2022-12-18T16:50:13.051Z,6.55
2022-12-18T16:52:39.837Z,6.35
2022-12-18T16:55:06.876Z,6.78
2022-12-18T16:57:33.461Z,7.03
2022-12-18T17:00:04.775Z,6.72
2022-12-18T17:02:31.903Z,7.50
2022-12-18T17:04:58.686Z,6.88
2022-12-18T17:07:28.006Z,8.02
2022-12-18T17:09:54.562Z,7.63
2022-12-18T17:12:21.153Z,7.97
2022-12-18T17:14:47.969Z,8.23
2022-12-18T17:17:23.554Z,7.50
2022-12-18T17:19:51.941Z,7.20
2022-12-18T17:22:18.811Z,7.60
2022-12-18T17:24:46.560Z,7.80
2022-12-18T17:27:13.017Z,7.95
2022-12-18T17:29:45.302Z,7.60
2022-12-18T17:32:14.217Z,8.35
2022-12-18T17:34:40.787Z,8.13
2022-12-18T17:37:07.385Z,8.35
2022-12-18T17:39:33.832Z,8.93
2022-12-18T17:42:01.306Z,8.05
2022-12-18T17:44:27.737Z,8.30
2022-12-18T17:46:54.188Z,9.07
2022-12-18T17:49:21.514Z,7.78
2022-12-18T17:51:48.824Z,8.13
2022-12-18T17:54:15.252Z,9.23
2022-12-18T17:56:41.757Z,8.43
2022-12-18T17:59:08.407Z,8.18
2022-12-18T18:01:38.381Z,7.70
2022-12-18T18:04:07.526Z,8.70
2022-12-18T18:06:34.059Z,8.10
2022-12-18T18:09:02.977Z,8.98
2022-12-18T18:15:09.718Z,8.90
2022-12-18T18:17:44.276Z,8.18
2022-12-18T18:20:11.068Z,8.93
2022-12-18T18:22:37.638Z,9.63
2022-12-18T18:25:04.480Z,8.27
2022-12-18T18:27:36.832Z,8.77
2022-12-18T18:30:05.472Z,7.78
2022-12-18T18:32:31.824Z,8.70
2022-12-18T18:34:58.269Z,8.98
2022-12-18T18:37:24.804Z,7.75
2022-12-18T18:39:51.280Z,8.52
2022-12-18T18:42:17.686Z,8.90
2022-12-18T18:44:48.710Z,8.02
2022-12-18T18:47:15.426Z,7.85
2022-12-18T18:49:41.861Z,9.30
2022-12-18T18:52:08.331Z,8.75
2022-12-18T18:54:34.684Z,8.35
2022-12-18T18:57:19.902Z,8.35
2022-12-18T18:59:47.315Z,8.63
2022-12-18T19:02:15.194Z,9.20
2022-12-18T19:04:46.188Z,8.15
2022-12-18T19:07:15.019Z,7.93
2022-12-18T19:09:52.101Z,8.85
2022-12-18T19:12:37.123Z,8.23
2022-12-18T19:15:06.574Z,8.52
2022-12-18T19:17:33.905Z,7.53
2022-12-18T19:20:01.593Z,9.05
2022-12-18T19:22:28.044Z,7.05
2022-12-18T19:24:54.413Z,9.25
2022-12-18T19:27:20.858Z,6.78
2022-12-18T19:29:48.925Z,8.23
2022-12-18T19:32:15.604Z,8.57
2022-12-18T19:34:41.997Z,8.35
2022-12-18T19:37:09.713Z,8.88
2022-12-18T19:39:36.152Z,7.85
2022-12-18T19:42:02.527Z,8.60
2022-12-18T19:44:28.919Z,8.57
2022-12-18T19:46:55.377Z,8.40
2022-12-18T19:49:21.878Z,9.05
2022-12-18T19:51:50.255Z,7.75
2022-12-18T19:54:17.923Z,9.20
2022-12-18T19:56:44.946Z,8.30
2022-12-18T19:59:11.318Z,8.05
2022-12-18T20:01:37.908Z,9.35
2022-12-18T20:04:04.839Z,8.43
2022-12-18T20:06:45.401Z,8.98
2022-12-18T20:09:11.936Z,8.93
2022-12-18T20:11:41.989Z,8.98
2022-12-18T20:14:13.008Z,8.35
2022-12-18T20:16:39.541Z,8.05
2022-12-18T20:19:07.180Z,9.55
2022-12-18T20:21:34.392Z,9.38
2022-12-18T20:24:01.969Z,9.27
2022-12-18T20:26:28.617Z,9.25
2022-12-18T20:28:55.945Z,10.30
2022-12-18T20:31:23.835Z,8.77
2022-12-18T20:33:51.169Z,9.93
2022-12-18T20:36:23.614Z,7.85
2022-12-18T20:38:54.678Z,9.13
2022-12-18T20:41:24.322Z,8.73
2022-12-18T20:43:51.193Z,10.23
2022-12-18T20:46:17.966Z,8.98
2022-12-18T20:48:44.931Z,9.75
2022-12-18T20:51:13.873Z,9.67
2022-12-18T20:53:42.156Z,10.18
2022-12-18T20:56:21.334Z,10.18
2022-12-18T20:58:49.085Z,9.38
2022-12-18T21:01:19.746Z,9.48
2022-12-18T21:03:47.105Z,8.77
2022-12-18T21:06:15.441Z,11.13
2022-12-18T21:08:41.920Z,10.35
2022-12-18T21:11:49.948Z,9.77
2022-12-18T21:14:22.868Z,9.32
2022-12-18T21:16:51.866Z,9.77
2022-12-18T21:19:22.953Z,9.57
2022-12-18T21:21:49.924Z,9.10
2022-12-18T21:24:16.592Z,8.68
2022-12-18T21:26:45.807Z,10.93
2022-12-18T21:29:19.781Z,10.23
2022-12-18T21:31:47.470Z,10.40
2022-12-18T21:34:23.703Z,9.48
2022-12-18T21:36:50.086Z,10.00
2022-12-18T21:39:17.203Z,9.68
2022-12-18T21:42:02.363Z,10.37
2022-12-18T21:44:29.078Z,9.57
2022-12-18T21:47:00.568Z,9.85
2022-12-18T21:49:30.493Z,10.15
2022-12-18T21:51:58.860Z,10.65
2022-12-18T21:54:27.141Z,9.75
2022-12-18T21:56:56.527Z,9.25
2022-12-18T21:59:25.693Z,9.73
2022-12-18T22:01:53.731Z,9.20
2022-12-18T22:04:20.889Z,10.50
2022-12-18T22:06:48.523Z,8.73
2022-12-18T22:09:17.879Z,8.75
2022-12-18T22:11:45.121Z,9.70
2022-12-18T22:14:12.381Z,10.00
2022-12-18T22:16:38.725Z,11.48
2022-12-18T22:19:06.180Z,10.30
2022-12-18T22:21:35.529Z,9.93
2022-12-18T22:24:04.550Z,9.70
2022-12-18T22:26:39.325Z,10.27
2022-12-18T22:29:25.167Z,9.65
2022-12-18T22:31:52.708Z,10.57
2022-12-18T22:34:22.781Z,9.40
2022-12-18T22:36:49.601Z,9.20
2022-12-18T22:39:18.965Z,9.80
2022-12-18T22:41:45.913Z,9.45
2022-12-18T22:44:12.471Z,10.75
2022-12-18T22:46:50.076Z,10.38
2022-12-18T22:49:29.957Z,10.68
2022-12-18T22:51:56.482Z,11.55
2022-12-18T22:54:23.544Z,9.80
2022-12-18T22:56:50.036Z,9.02
2022-12-18T22:59:21.786Z,9.50
2022-12-18T23:01:49.687Z,9.88
2022-12-18T23:04:17.577Z,10.95
2022-12-18T23:06:45.034Z,10.40
2022-12-18T23:09:19.989Z,9.80
2022-12-18T23:11:47.810Z,10.52
2022-12-18T23:14:14.461Z,11.10
2022-12-18T23:16:40.996Z,10.77
2022-12-18T23:19:09.024Z,11.00
2022-12-18T23:21:36.414Z,10.60
2022-12-18T23:24:03.934Z,11.15
2022-12-18T23:26:30.708Z,10.77
2022-12-18T23:28:57.160Z,10.95
2022-12-18T23:31:26.717Z,9.43
2022-12-18T23:33:55.338Z,10.25
2022-12-18T23:36:22.770Z,11.10
2022-12-18T23:38:51.323Z,10.95
2022-12-18T23:41:20.047Z,10.45
2022-12-18T23:43:46.568Z,11.73
2022-12-18T23:46:32.613Z,10.32
2022-12-18T23:49:00.802Z,11.07
2022-12-18T23:51:28.240Z,11.25
2022-12-18T23:53:57.162Z,9.57
2022-12-18T23:56:24.113Z,10.82
2022-12-18T23:58:52.643Z,10.63
